createdAt,value
2017-11-05T00:00:26.111Z,947.15
2017-11-05T00:01:26.099Z,947.09
2017-11-05T00:02:26.086Z,947.14
2017-11-05T00:03:26.083Z,947.16
2017-11-05T00:04:26.061Z,947.15
2017-11-05T00:05:26.052Z,947.16
2017-11-05T00:06:26.039Z,947.14
2017-11-05T00:07:26.024Z,947.18
2017-11-05T00:08:26.011Z,947.22
2017-11-05T00:09:25.997Z,947.14
2017-11-05T00:10:25.986Z,947.2
2017-11-05T00:11:25.975Z,947.13
2017-11-05T00:12:25.962Z,947.14
2017-11-05T00:13:25.949Z,947.14
2017-11-05T00:14:25.937Z,947.12
2017-11-05T00:15:25.925Z,947.14
2017-11-05T00:16:25.918Z,947.11
2017-11-05T00:17:25.899Z,947.16
2017-11-05T00:18:25.906Z,947.17
2017-11-05T00:19:25.876Z,947.2
2017-11-05T00:20:25.862Z,947.16
2017-11-05T00:21:25.851Z,947.15
2017-11-05T00:22:25.847Z,947.18
2017-11-05T00:23:25.826Z,947.22
2017-11-05T00:24:25.817Z,947.19
2017-11-05T00:25:25.801Z,947.23
2017-11-05T00:26:25.789Z,947.22
2017-11-05T00:27:25.775Z,947.24
2017-11-05T00:28:25.784Z,947.25
2017-11-05T00:29:25.753Z,947.21
2017-11-05T00:30:25.739Z,947.11
2017-11-05T00:31:25.728Z,947.16
2017-11-05T00:32:25.720Z,947.1
2017-11-05T00:33:25.703Z,947.12
2017-11-05T00:34:25.692Z,947.07
2017-11-05T00:35:25.679Z,947.02
2017-11-05T00:36:25.666Z,947.02
2017-11-05T00:37:25.655Z,947.07
2017-11-05T00:38:25.642Z,947.02
2017-11-05T00:39:25.630Z,947.03
2017-11-05T00:40:25.618Z,947.06
2017-11-05T00:41:25.604Z,947.02
2017-11-05T00:42:25.593Z,946.98
2017-11-05T00:43:25.581Z,947.02
2017-11-05T00:44:25.586Z,946.96
2017-11-05T00:45:25.556Z,946.92
2017-11-05T00:46:25.544Z,946.94
2017-11-05T00:47:25.535Z,946.96
2017-11-05T00:48:25.520Z,946.95
2017-11-05T00:49:25.509Z,946.94
2017-11-05T00:50:25.497Z,946.94
2017-11-05T00:51:25.483Z,946.9
2017-11-05T00:52:25.471Z,946.9
2017-11-05T00:53:25.460Z,946.91
2017-11-05T00:54:25.451Z,946.88
2017-11-05T00:55:25.434Z,946.84
2017-11-05T00:56:25.421Z,946.88
2017-11-05T00:57:25.410Z,946.87
2017-11-05T00:58:25.398Z,946.91
2017-11-05T00:59:25.398Z,946.88
2017-11-05T01:00:25.374Z,946.89
2017-11-05T01:01:25.360Z,946.9
2017-11-05T01:02:25.350Z,946.96
2017-11-05T01:03:25.339Z,946.91
2017-11-05T01:04:25.325Z,946.94
2017-11-05T01:05:25.311Z,946.89
2017-11-05T01:06:25.302Z,946.86
2017-11-05T01:07:25.289Z,946.86
2017-11-05T01:08:25.275Z,946.81
2017-11-05T01:09:25.265Z,946.8
2017-11-05T01:10:25.259Z,946.79
2017-11-05T01:11:25.239Z,946.83
2017-11-05T01:12:25.229Z,946.75
2017-11-05T01:13:25.214Z,946.78
2017-11-05T01:14:25.215Z,946.73
2017-11-05T01:15:25.191Z,946.75
2017-11-05T01:16:25.178Z,946.72
2017-11-05T01:17:25.167Z,946.63
2017-11-05T01:18:25.154Z,946.61
2017-11-05T01:19:25.142Z,946.61
2017-11-05T01:20:25.128Z,946.55
2017-11-05T01:21:25.122Z,946.58
2017-11-05T01:22:25.104Z,946.6
2017-11-05T01:23:25.092Z,946.59
2017-11-05T01:24:25.081Z,946.61
2017-11-05T01:25:25.069Z,946.56
2017-11-05T01:26:25.056Z,946.57
2017-11-05T01:27:25.049Z,946.57
2017-11-05T01:28:25.033Z,946.6
2017-11-05T01:29:25.019Z,946.58
2017-11-05T01:30:25.008Z,946.6
2017-11-05T01:31:24.996Z,946.54
2017-11-05T01:32:24.983Z,946.6
2017-11-05T01:33:24.971Z,946.56
2017-11-05T01:34:24.958Z,946.54
2017-11-05T01:35:24.946Z,946.58
2017-11-05T01:36:24.934Z,946.54
2017-11-05T01:37:24.922Z,946.58
2017-11-05T01:38:24.915Z,946.61
2017-11-05T01:40:24.902Z,946.63
2017-11-05T01:41:24.883Z,946.62
2017-11-05T01:42:24.861Z,946.65
2017-11-05T01:43:24.849Z,946.59
2017-11-05T01:44:24.837Z,946.64
2017-11-05T01:45:24.826Z,946.57
2017-11-05T01:46:24.812Z,946.55
2017-11-05T01:47:24.801Z,946.56
2017-11-05T01:48:24.788Z,946.53
2017-11-05T01:49:24.783Z,946.54
2017-11-05T01:50:24.766Z,946.5
2017-11-05T01:51:24.751Z,946.54
2017-11-05T01:52:24.760Z,946.55
2017-11-05T01:53:24.727Z,946.54
2017-11-05T01:54:24.717Z,946.53
2017-11-05T01:55:24.703Z,946.54
2017-11-05T01:56:24.695Z,946.51
2017-11-05T01:57:24.680Z,946.52
2017-11-05T01:58:24.665Z,946.47
2017-11-05T01:59:24.654Z,946.47
2017-11-05T02:00:24.642Z,946.4
2017-11-05T02:01:24.630Z,946.46
2017-11-05T02:02:24.617Z,946.41
2017-11-05T02:03:24.625Z,946.41
2017-11-05T02:04:24.593Z,946.42
2017-11-05T02:05:24.581Z,946.43
2017-11-05T02:06:24.575Z,946.35
2017-11-05T02:07:24.555Z,946.39
2017-11-05T02:08:24.545Z,946.4
2017-11-05T02:09:24.538Z,946.39
2017-11-05T02:10:24.521Z,946.39
2017-11-05T02:11:24.508Z,946.38
2017-11-05T02:12:24.497Z,946.3
2017-11-05T02:13:24.483Z,946.35
2017-11-05T02:14:24.486Z,946.32
2017-11-05T02:15:24.468Z,946.33
2017-11-05T02:16:24.448Z,946.35
2017-11-05T02:17:24.433Z,946.33
2017-11-05T02:18:24.434Z,946.26
2017-11-05T02:19:24.409Z,946.3
2017-11-05T02:20:24.399Z,946.28
2017-11-05T02:21:24.388Z,946.23
2017-11-05T02:22:24.375Z,946.26
2017-11-05T02:23:24.363Z,946.21
2017-11-05T02:24:24.351Z,946.22
2017-11-05T02:25:24.337Z,946.25
2017-11-05T02:26:24.327Z,946.24
2017-11-05T02:27:24.315Z,946.27
2017-11-05T02:28:24.301Z,946.28
2017-11-05T02:29:24.290Z,946.27
2017-11-05T02:30:24.278Z,946.24
2017-11-05T02:31:24.271Z,946.22
2017-11-05T02:32:24.253Z,946.18
2017-11-05T02:33:24.241Z,946.22
2017-11-05T02:34:24.230Z,946.18
2017-11-05T02:35:24.217Z,946.14
2017-11-05T02:36:24.260Z,946.09
2017-11-05T02:37:24.194Z,946.09
2017-11-05T02:38:24.182Z,946.07
2017-11-05T02:39:24.169Z,946.12
2017-11-05T02:40:24.159Z,946.11
2017-11-05T02:41:24.145Z,946.1
2017-11-05T02:42:24.132Z,946.05
2017-11-05T02:43:24.123Z,946.14
2017-11-05T02:44:24.108Z,946.08
2017-11-05T02:45:24.098Z,946.04
2017-11-05T02:46:24.085Z,946.1
2017-11-05T02:47:24.071Z,946.04
2017-11-05T02:48:24.059Z,946.07
2017-11-05T02:49:24.047Z,946.04
2017-11-05T02:50:24.035Z,946.05
2017-11-05T02:51:24.024Z,946.01
2017-11-05T02:52:24.012Z,945.97
2017-11-05T02:53:23.998Z,945.94
2017-11-05T02:54:23.987Z,945.9
2017-11-05T02:55:23.974Z,945.92
2017-11-05T02:56:23.964Z,945.9
2017-11-05T02:57:23.951Z,945.88
2017-11-05T02:58:23.938Z,945.82
2017-11-05T02:59:23.925Z,945.75
2017-11-05T03:00:23.936Z,945.81
2017-11-05T03:01:23.903Z,945.78
2017-11-05T03:02:23.889Z,945.77
2017-11-05T03:03:23.877Z,945.78
2017-11-05T03:04:23.874Z,945.75
2017-11-05T03:05:23.853Z,945.74
2017-11-05T03:06:23.842Z,945.72
2017-11-05T03:07:23.833Z,945.66
2017-11-05T03:08:23.815Z,945.66
2017-11-05T03:09:23.804Z,945.65
2017-11-05T03:10:23.793Z,945.64
2017-11-05T03:11:23.781Z,945.58
2017-11-05T03:12:23.768Z,945.6
2017-11-05T03:13:23.755Z,945.6
2017-11-05T03:14:23.744Z,945.62
2017-11-05T03:15:23.731Z,945.66
2017-11-05T03:16:23.718Z,945.58
2017-11-05T03:17:23.708Z,945.59
2017-11-05T03:18:23.695Z,945.56
2017-11-05T03:19:23.684Z,945.58
2017-11-05T03:20:23.670Z,945.54
2017-11-05T03:21:23.658Z,945.51
2017-11-05T03:22:23.647Z,945.49
2017-11-05T03:23:23.635Z,945.49
2017-11-05T03:24:23.622Z,945.45
2017-11-05T03:25:23.610Z,945.48
2017-11-05T03:26:23.597Z,945.46
2017-11-05T03:27:23.599Z,945.4
2017-11-05T03:28:23.574Z,945.34
2017-11-05T03:29:23.561Z,945.37
2017-11-05T03:30:23.550Z,945.37
2017-11-05T03:31:23.536Z,945.28
2017-11-05T03:32:23.525Z,945.27
2017-11-05T03:33:23.514Z,945.27
2017-11-05T03:34:23.499Z,945.23
2017-11-05T03:35:23.488Z,945.22
2017-11-05T03:36:23.476Z,945.2
2017-11-05T03:37:25.864Z,945.15
2017-11-05T03:38:23.451Z,945.13
2017-11-05T03:39:23.455Z,945.15
2017-11-05T03:40:23.427Z,945.17
2017-11-05T03:41:23.415Z,945.14
2017-11-05T03:42:23.402Z,945.15
2017-11-05T03:43:23.389Z,945.19
2017-11-05T03:44:23.394Z,945.19
2017-11-05T03:45:23.366Z,945.13
2017-11-05T03:46:23.353Z,945.12
2017-11-05T03:47:23.342Z,945.13
2017-11-05T03:48:23.330Z,945.13
2017-11-05T03:49:23.317Z,945.09
2017-11-05T03:50:23.305Z,945.09
2017-11-05T03:51:23.294Z,945.11
2017-11-05T03:52:23.279Z,945.14
2017-11-05T03:53:23.269Z,945.09
2017-11-05T03:54:23.256Z,945.05
2017-11-05T03:55:23.243Z,945.05
2017-11-05T03:56:23.250Z,945.01
2017-11-05T03:57:23.220Z,945
2017-11-05T03:58:23.208Z,944.95
2017-11-05T03:59:23.194Z,944.92
2017-11-05T04:00:23.182Z,944.92
2017-11-05T04:01:23.171Z,944.87
2017-11-05T04:02:23.159Z,944.89
2017-11-05T04:03:23.146Z,944.88
2017-11-05T04:04:23.185Z,944.84
2017-11-05T04:05:23.122Z,944.79
2017-11-05T04:06:23.109Z,944.79
2017-11-05T04:07:23.098Z,944.76
2017-11-05T04:08:23.085Z,944.8
2017-11-05T04:09:23.073Z,944.8
2017-11-05T04:10:23.059Z,944.77
2017-11-05T04:11:23.049Z,944.75
2017-11-05T04:12:23.035Z,944.77
2017-11-05T04:13:23.024Z,944.8
2017-11-05T04:14:23.009Z,944.78
2017-11-05T04:15:22.997Z,944.77
2017-11-05T04:16:22.985Z,944.79
2017-11-05T04:17:22.973Z,944.75
2017-11-05T04:18:22.961Z,944.74
2017-11-05T04:19:22.948Z,944.73
2017-11-05T04:20:22.941Z,944.72
2017-11-05T04:21:22.932Z,944.74
2017-11-05T04:22:22.912Z,944.7
2017-11-05T04:23:22.899Z,944.64
2017-11-05T04:24:22.894Z,944.69
2017-11-05T04:25:22.873Z,944.69
2017-11-05T04:26:22.862Z,944.71
2017-11-05T04:27:22.852Z,944.74
2017-11-05T04:28:22.838Z,944.72
2017-11-05T04:29:22.825Z,944.73
2017-11-05T04:30:22.811Z,944.71
2017-11-05T04:31:22.801Z,944.64
2017-11-05T04:32:22.786Z,944.65
2017-11-05T04:33:22.775Z,944.69
2017-11-05T04:34:22.781Z,944.69
2017-11-05T04:35:22.751Z,944.71
2017-11-05T04:36:22.738Z,944.72
2017-11-05T04:37:22.725Z,944.66
2017-11-05T04:38:22.717Z,944.71
2017-11-05T04:39:22.700Z,944.67
2017-11-05T04:40:22.688Z,944.65
2017-11-05T04:41:22.676Z,944.65
2017-11-05T04:42:22.664Z,944.68
2017-11-05T04:43:22.662Z,944.64
2017-11-05T04:44:22.640Z,944.67
2017-11-05T04:45:22.628Z,944.7
2017-11-05T04:46:22.617Z,944.71
2017-11-05T04:47:22.603Z,944.61
2017-11-05T04:48:22.591Z,944.6
2017-11-05T04:49:22.580Z,944.56
2017-11-05T04:50:22.566Z,944.52
2017-11-05T04:51:22.555Z,944.52
2017-11-05T04:52:22.543Z,944.53
2017-11-05T04:53:22.531Z,944.52
2017-11-05T04:54:22.519Z,944.5
2017-11-05T04:55:22.506Z,944.51
2017-11-05T04:56:22.496Z,944.51
2017-11-05T04:57:22.483Z,944.44
2017-11-05T04:58:22.470Z,944.46
2017-11-05T04:59:22.461Z,944.48
2017-11-05T05:00:22.446Z,944.48
2017-11-05T05:01:22.433Z,944.5
2017-11-05T05:02:22.426Z,944.47
2017-11-05T05:03:22.410Z,944.42
2017-11-05T05:04:22.398Z,944.45
2017-11-05T05:05:22.385Z,944.53
2017-11-05T05:06:22.376Z,944.53
2017-11-05T05:07:22.362Z,944.51
2017-11-05T05:08:22.356Z,944.51
2017-11-05T05:09:22.343Z,944.51
2017-11-05T05:10:22.327Z,944.47
2017-11-05T05:11:22.320Z,944.45
2017-11-05T05:12:22.302Z,944.44
2017-11-05T05:13:22.306Z,944.41
2017-11-05T05:14:22.300Z,944.38
2017-11-05T05:15:22.266Z,944.43
2017-11-05T05:16:22.254Z,944.44
2017-11-05T05:17:22.242Z,944.42
2017-11-05T05:18:22.230Z,944.41
2017-11-05T05:19:22.218Z,944.28
2017-11-05T05:20:22.205Z,944.32
2017-11-05T05:21:22.194Z,944.26
2017-11-05T05:22:22.184Z,944.26
2017-11-05T05:23:22.175Z,944.25
2017-11-05T05:24:22.158Z,944.26
2017-11-05T05:25:22.146Z,944.27
2017-11-05T05:26:22.134Z,944.26
2017-11-05T05:27:22.121Z,944.26
2017-11-05T05:28:22.110Z,944.18
2017-11-05T05:29:22.098Z,944.24
2017-11-05T05:30:22.087Z,944.12
2017-11-05T05:31:22.095Z,944.08
2017-11-05T05:32:22.062Z,944.17
2017-11-05T05:33:22.051Z,944.09
2017-11-05T05:34:22.038Z,944.06
2017-11-05T05:35:22.027Z,944.06
2017-11-05T05:36:22.017Z,944.08
2017-11-05T05:37:22.003Z,944.1
2017-11-05T05:38:21.991Z,944.14
2017-11-05T05:39:21.981Z,944.17
2017-11-05T05:40:21.966Z,944.13
2017-11-05T05:41:21.954Z,944.1
2017-11-05T05:42:21.942Z,944.08
2017-11-05T05:43:21.931Z,944.06
2017-11-05T05:44:21.920Z,944.08
2017-11-05T05:45:21.906Z,944.03
2017-11-05T05:46:21.894Z,944.04
2017-11-05T05:47:21.890Z,944.09
2017-11-05T05:48:21.871Z,944.05
2017-11-05T05:49:21.857Z,944.05
2017-11-05T05:50:21.844Z,944.08
2017-11-05T05:51:21.833Z,944.11
2017-11-05T05:52:21.822Z,944.08
2017-11-05T05:53:21.810Z,944.15
2017-11-05T05:54:21.798Z,944.15
2017-11-05T05:55:21.786Z,944.14
2017-11-05T05:56:21.774Z,944.18
2017-11-05T05:57:21.762Z,944.15
2017-11-05T05:58:21.750Z,944.16
2017-11-05T05:59:21.738Z,944.18
2017-11-05T06:00:21.726Z,944.17
2017-11-05T06:01:21.718Z,944.13
2017-11-05T06:02:21.702Z,944.11
2017-11-05T06:03:21.688Z,944.15
2017-11-05T06:04:21.677Z,944.16
2017-11-05T06:05:21.676Z,944.17
2017-11-05T06:06:21.654Z,944.17
2017-11-05T06:07:21.640Z,944.18
2017-11-05T06:08:21.628Z,944.17
2017-11-05T06:09:21.615Z,944.2
2017-11-05T06:10:21.605Z,944.23
2017-11-05T06:11:21.619Z,944.21
2017-11-05T06:12:21.581Z,944.23
2017-11-05T06:13:21.568Z,944.24
2017-11-05T06:14:21.575Z,944.24
2017-11-05T06:15:21.543Z,944.27
2017-11-05T06:16:21.548Z,944.23
2017-11-05T06:17:21.527Z,944.27
2017-11-05T06:18:21.507Z,944.27
2017-11-05T06:19:21.501Z,944.23
2017-11-05T06:20:21.482Z,944.25
2017-11-05T06:21:21.476Z,944.29
2017-11-05T06:22:21.457Z,944.22
2017-11-05T06:23:21.447Z,944.27
2017-11-05T06:24:21.435Z,944.24
2017-11-05T06:25:21.422Z,944.28
2017-11-05T06:26:21.410Z,944.28
2017-11-05T06:27:21.401Z,944.25
2017-11-05T06:28:21.386Z,944.29
2017-11-05T06:29:21.373Z,944.32
2017-11-05T06:30:21.362Z,944.31
2017-11-05T06:31:21.350Z,944.3
2017-11-05T06:32:21.359Z,944.33
2017-11-05T06:33:21.344Z,944.31
2017-11-05T06:34:21.313Z,944.32
2017-11-05T06:35:21.302Z,944.34
2017-11-05T06:36:21.291Z,944.33
2017-11-05T06:37:21.278Z,944.34
2017-11-05T06:38:21.267Z,944.38
2017-11-05T06:39:21.254Z,944.34
2017-11-05T06:40:21.241Z,944.34
2017-11-05T06:41:21.238Z,944.35
2017-11-05T06:42:21.220Z,944.31
2017-11-05T06:43:21.208Z,944.4
2017-11-05T06:44:21.206Z,944.43
2017-11-05T06:45:21.204Z,944.39
2017-11-05T06:46:21.172Z,944.4
2017-11-05T06:47:21.159Z,944.41
2017-11-05T06:48:21.148Z,944.43
2017-11-05T06:49:21.137Z,944.43
2017-11-05T06:50:21.124Z,944.41
2017-11-05T06:51:21.112Z,944.4
2017-11-05T06:52:21.110Z,944.48
2017-11-05T06:53:21.089Z,944.43
2017-11-05T06:54:21.078Z,944.49
2017-11-05T06:55:21.065Z,944.44
2017-11-05T06:56:21.054Z,944.48
2017-11-05T06:57:21.042Z,944.44
2017-11-05T06:58:21.032Z,944.48
2017-11-05T06:59:21.019Z,944.41
2017-11-05T07:00:21.029Z,944.43
2017-11-05T07:01:20.996Z,944.39
2017-11-05T07:02:20.985Z,944.44
2017-11-05T07:03:20.970Z,944.49
2017-11-05T07:04:20.961Z,944.43
2017-11-05T07:05:20.950Z,944.43
2017-11-05T07:06:20.939Z,944.45
2017-11-05T07:07:20.927Z,944.47
2017-11-05T07:08:20.915Z,944.46
2017-11-05T07:09:20.903Z,944.43
2017-11-05T07:10:20.892Z,944.44
2017-11-05T07:11:20.881Z,944.44
2017-11-05T07:12:20.873Z,944.49
2017-11-05T07:13:20.859Z,944.46
2017-11-05T07:14:20.848Z,944.47
2017-11-05T07:15:20.835Z,944.41
2017-11-05T07:16:20.823Z,944.41
2017-11-05T07:17:20.813Z,944.43
2017-11-05T07:18:20.817Z,944.39
2017-11-05T07:19:20.791Z,944.39
2017-11-05T07:20:20.779Z,944.38
2017-11-05T07:21:20.770Z,944.43
2017-11-05T07:22:20.757Z,944.34
2017-11-05T07:23:20.745Z,944.38
2017-11-05T07:24:20.735Z,944.37
2017-11-05T07:25:20.728Z,944.36
2017-11-05T07:26:20.717Z,944.36
2017-11-05T07:27:20.701Z,944.31
2017-11-05T07:28:20.694Z,944.3
2017-11-05T07:29:20.679Z,944.32
2017-11-05T07:30:20.668Z,944.31
2017-11-05T07:31:20.660Z,944.26
2017-11-05T07:32:20.646Z,944.26
2017-11-05T07:33:20.692Z,944.19
2017-11-05T07:34:20.632Z,944.21
2017-11-05T07:35:20.626Z,944.23
2017-11-05T07:36:20.602Z,944.12
2017-11-05T07:37:20.592Z,944.14
2017-11-05T07:38:20.580Z,944.19
2017-11-05T07:39:20.571Z,944.19
2017-11-05T07:40:20.559Z,944.18
2017-11-05T07:41:20.549Z,944.19
2017-11-05T07:42:20.539Z,944.16
2017-11-05T07:43:20.527Z,944.18
2017-11-05T07:44:20.516Z,944.16
2017-11-05T07:45:20.507Z,944.21
2017-11-05T07:46:20.537Z,944.2
2017-11-05T07:47:20.484Z,944.21
2017-11-05T07:48:20.477Z,944.19
2017-11-05T07:49:20.472Z,944.24
2017-11-05T07:50:20.460Z,944.22
2017-11-05T07:51:20.442Z,944.26
2017-11-05T07:52:20.431Z,944.22
2017-11-05T07:53:20.435Z,944.22
2017-11-05T07:54:20.411Z,944.19
2017-11-05T07:55:20.400Z,944.15
2017-11-05T07:56:20.412Z,944.15
2017-11-05T07:57:20.378Z,944.16
2017-11-05T07:58:20.367Z,944.11
2017-11-05T07:59:20.363Z,944.14
2017-11-05T08:00:20.349Z,944.1
2017-11-05T08:01:20.336Z,944.16
2017-11-05T08:02:20.347Z,944.15
2017-11-05T08:03:20.317Z,944.17
2017-11-05T08:04:20.308Z,944.11
2017-11-05T08:05:20.295Z,944.08
2017-11-05T08:06:20.286Z,944.13
2017-11-05T08:07:20.276Z,944.06
2017-11-05T08:08:20.268Z,944.05
2017-11-05T08:09:20.257Z,944.05
2017-11-05T08:10:20.284Z,943.96
2017-11-05T08:11:20.234Z,943.97
2017-11-05T08:12:20.225Z,943.83
2017-11-05T08:13:20.215Z,943.87
2017-11-05T08:14:20.205Z,943.83
2017-11-05T08:15:20.194Z,943.82
2017-11-05T08:16:20.185Z,943.85
2017-11-05T08:17:20.176Z,943.76
2017-11-05T08:18:20.186Z,943.78
2017-11-05T08:19:20.156Z,943.84
2017-11-05T08:20:20.146Z,943.88
2017-11-05T08:21:20.136Z,943.9
2017-11-05T08:22:20.125Z,943.94
2017-11-05T08:23:20.117Z,943.91
2017-11-05T08:24:20.107Z,943.98
2017-11-05T08:25:20.097Z,943.95
2017-11-05T08:26:20.100Z,943.91
2017-11-05T08:27:20.079Z,943.85
2017-11-05T08:28:20.070Z,943.78
2017-11-05T08:29:20.059Z,943.76
2017-11-05T08:30:20.049Z,943.8
2017-11-05T08:31:20.041Z,943.81
2017-11-05T08:32:20.032Z,943.79
2017-11-05T08:33:20.023Z,943.81
2017-11-05T08:34:20.014Z,943.81
2017-11-05T08:35:20.010Z,943.85
2017-11-05T08:36:19.995Z,943.77
2017-11-05T08:37:19.986Z,943.79
2017-11-05T08:38:19.976Z,943.81
2017-11-05T08:39:19.970Z,943.84
2017-11-05T08:40:19.960Z,943.84
2017-11-05T08:41:19.950Z,943.84
2017-11-05T08:42:19.941Z,943.87
2017-11-05T08:43:19.932Z,943.82
2017-11-05T08:44:19.924Z,943.84
2017-11-05T08:45:19.914Z,943.83
2017-11-05T08:46:19.905Z,943.82
2017-11-05T08:47:19.896Z,943.76
2017-11-05T08:48:19.887Z,943.79
2017-11-05T08:49:19.877Z,943.81
2017-11-05T08:50:19.868Z,943.79
2017-11-05T08:51:19.859Z,943.76
2017-11-05T08:52:19.851Z,943.79
2017-11-05T08:53:19.840Z,943.88
2017-11-05T08:54:19.848Z,943.84
2017-11-05T08:55:19.822Z,943.83
2017-11-05T08:56:19.892Z,943.86
2017-11-05T08:57:19.804Z,943.85
2017-11-05T08:58:19.796Z,943.89
2017-11-05T08:59:19.805Z,943.87
2017-11-05T09:00:19.780Z,943.88
2017-11-05T09:01:19.767Z,943.92
2017-11-05T09:02:19.758Z,943.92
2017-11-05T09:03:19.752Z,943.95
2017-11-05T09:05:19.732Z,943.93
2017-11-05T09:06:19.746Z,943.96
2017-11-05T09:07:19.712Z,943.99
2017-11-05T09:08:19.702Z,943.98
2017-11-05T09:09:19.694Z,943.98
2017-11-05T09:10:19.684Z,943.95
2017-11-05T09:11:19.675Z,944.03
2017-11-05T09:12:19.668Z,944.02
2017-11-05T09:13:19.667Z,944.03
2017-11-05T09:14:19.648Z,944.02
2017-11-05T09:15:19.641Z,944.03
2017-11-05T09:16:19.629Z,944.02
2017-11-05T09:17:19.620Z,944.12
2017-11-05T09:18:19.612Z,944.05
2017-11-05T09:19:19.604Z,944.11
2017-11-05T09:20:19.596Z,944.09
2017-11-05T09:21:19.585Z,944.08
2017-11-05T09:22:19.578Z,944.09
2017-11-05T09:23:19.568Z,944.11
2017-11-05T09:24:19.560Z,944.14
2017-11-05T09:25:19.554Z,944.09
2017-11-05T09:26:19.545Z,944.05
2017-11-05T09:27:19.540Z,944.04
2017-11-05T09:28:19.527Z,944.09
2017-11-05T09:29:19.526Z,944.12
2017-11-05T09:30:19.516Z,944.11
2017-11-05T09:31:19.512Z,944.14
2017-11-05T09:32:19.497Z,944.09
2017-11-05T09:33:19.490Z,944.05
2017-11-05T09:34:19.482Z,944.03
2017-11-05T09:35:19.474Z,944.03
2017-11-05T09:36:19.483Z,944.06
2017-11-05T09:37:19.460Z,944.07
2017-11-05T09:38:19.453Z,944.08
2017-11-05T09:39:19.445Z,944.03
2017-11-05T09:40:19.439Z,944.03
2017-11-05T09:41:19.449Z,944.04
2017-11-05T09:42:19.424Z,944.05
2017-11-05T09:43:19.418Z,944.05
2017-11-05T09:44:19.435Z,944
2017-11-05T09:45:19.403Z,944.03
2017-11-05T09:46:19.395Z,943.96
2017-11-05T09:47:19.389Z,943.95
2017-11-05T09:48:19.383Z,944.01
2017-11-05T09:49:19.375Z,944
2017-11-05T09:50:19.366Z,944
2017-11-05T09:51:19.360Z,944.02
2017-11-05T09:52:19.353Z,944
2017-11-05T09:53:19.348Z,943.97
2017-11-05T09:54:19.339Z,943.98
2017-11-05T09:55:19.333Z,943.87
2017-11-05T09:56:19.329Z,943.97
2017-11-05T09:57:19.321Z,944.01
2017-11-05T09:58:19.313Z,944.01
2017-11-05T09:59:19.307Z,944.01
2017-11-05T10:00:19.301Z,944.04
2017-11-05T10:01:19.315Z,944
2017-11-05T10:02:19.288Z,944.01
2017-11-05T10:03:19.282Z,943.97
2017-11-05T10:04:19.278Z,943.98
2017-11-05T10:05:19.272Z,943.96
2017-11-05T10:06:19.263Z,943.91
2017-11-05T10:07:19.262Z,943.92
2017-11-05T10:08:19.249Z,943.91
2017-11-05T10:09:19.243Z,943.91
2017-11-05T10:10:19.236Z,943.92
2017-11-05T10:11:19.231Z,943.94
2017-11-05T10:12:19.223Z,943.93
2017-11-05T10:13:19.223Z,943.94
2017-11-05T10:14:19.212Z,943.88
2017-11-05T10:15:19.206Z,943.85
2017-11-05T10:16:19.200Z,943.83
2017-11-05T10:17:19.192Z,943.81
2017-11-05T10:18:19.186Z,943.83
2017-11-05T10:19:19.179Z,943.79
2017-11-05T10:20:19.172Z,943.75
2017-11-05T10:21:19.166Z,943.79
2017-11-05T10:22:19.160Z,943.7
2017-11-05T10:23:19.154Z,943.75
2017-11-05T10:24:19.158Z,943.72
2017-11-05T10:25:19.138Z,943.75
2017-11-05T10:26:19.132Z,943.74
2017-11-05T10:27:19.125Z,943.73
2017-11-05T10:28:19.120Z,943.71
2017-11-05T10:29:19.123Z,943.68
2017-11-05T10:30:19.106Z,943.7
2017-11-05T10:31:19.101Z,943.68
2017-11-05T10:32:19.093Z,943.64
2017-11-05T10:33:19.089Z,943.62
2017-11-05T10:34:19.079Z,943.62
2017-11-05T10:35:19.072Z,943.59
2017-11-05T10:36:19.068Z,943.58
2017-11-05T10:37:19.066Z,943.59
2017-11-05T10:38:19.053Z,943.54
2017-11-05T10:39:19.046Z,943.54
2017-11-05T10:40:19.040Z,943.56
2017-11-05T10:41:19.037Z,943.54
2017-11-05T10:42:19.025Z,943.52
2017-11-05T10:43:19.020Z,943.53
2017-11-05T10:44:19.014Z,943.5
2017-11-05T10:45:19.007Z,943.53
2017-11-05T10:46:19.000Z,943.48
2017-11-05T10:47:18.994Z,943.52
2017-11-05T10:48:18.986Z,943.54
2017-11-05T10:49:18.983Z,943.57
2017-11-05T10:50:18.974Z,943.61
2017-11-05T10:51:18.968Z,943.56
2017-11-05T10:52:18.960Z,943.56
2017-11-05T10:53:18.955Z,943.49
2017-11-05T10:54:18.962Z,943.53
2017-11-05T10:55:18.943Z,943.51
2017-11-05T10:56:18.935Z,943.53
2017-11-05T10:57:18.928Z,943.5
2017-11-05T10:58:18.923Z,943.47
2017-11-05T10:59:18.915Z,943.46
2017-11-05T11:00:18.910Z,943.43
2017-11-05T11:01:18.904Z,943.44
2017-11-05T11:02:18.899Z,943.46
2017-11-05T11:03:18.890Z,943.41
2017-11-05T11:04:18.886Z,943.44
2017-11-05T11:05:18.887Z,943.46
2017-11-05T11:06:18.871Z,943.4
2017-11-05T11:07:18.867Z,943.39
2017-11-05T11:08:18.859Z,943.45
2017-11-05T11:09:18.852Z,943.46
2017-11-05T11:10:18.855Z,943.41
2017-11-05T11:11:18.839Z,943.46
2017-11-05T11:12:18.838Z,943.45
2017-11-05T11:13:18.825Z,943.4
2017-11-05T11:14:18.835Z,943.38
2017-11-05T11:15:18.812Z,943.45
2017-11-05T11:16:18.808Z,943.43
2017-11-05T11:17:18.799Z,943.42
2017-11-05T11:18:18.791Z,943.46
2017-11-05T11:19:18.786Z,943.44
2017-11-05T11:20:18.778Z,943.41
2017-11-05T11:21:18.769Z,943.41
2017-11-05T11:22:18.767Z,943.41
2017-11-05T11:23:18.757Z,943.4
2017-11-05T11:24:18.751Z,943.4
2017-11-05T11:25:18.743Z,943.39
2017-11-05T11:26:18.736Z,943.38
2017-11-05T11:27:18.730Z,943.42
2017-11-05T11:28:18.723Z,943.37
2017-11-05T11:29:18.720Z,943.39
2017-11-05T11:30:18.708Z,943.36
2017-11-05T11:31:18.705Z,943.33
2017-11-05T11:32:18.694Z,943.36
2017-11-05T11:33:18.687Z,943.32
2017-11-05T11:34:18.680Z,943.3
2017-11-05T11:35:18.674Z,943.31
2017-11-05T11:36:18.672Z,943.34
2017-11-05T11:37:18.659Z,943.31
2017-11-05T11:38:18.652Z,943.35
2017-11-05T11:39:18.645Z,943.32
2017-11-05T11:40:18.637Z,943.29
2017-11-05T11:41:18.630Z,943.31
2017-11-05T11:42:18.623Z,943.26
2017-11-05T11:43:18.615Z,943.2
2017-11-05T11:44:18.607Z,943.19
2017-11-05T11:45:18.600Z,943.13
2017-11-05T11:46:18.594Z,943.16
2017-11-05T11:47:18.589Z,943.11
2017-11-05T11:48:18.578Z,943.09
2017-11-05T11:49:18.571Z,943.07
2017-11-05T11:50:18.567Z,943.07
2017-11-05T11:51:18.555Z,943.06
2017-11-05T11:52:18.549Z,943.04
2017-11-05T11:53:18.541Z,942.99
2017-11-05T11:54:18.534Z,942.97
2017-11-05T11:55:18.525Z,942.99
2017-11-05T11:56:18.519Z,942.99
2017-11-05T11:57:18.511Z,943.04
2017-11-05T11:58:18.503Z,942.97
2017-11-05T11:59:18.495Z,943.04
2017-11-05T12:00:18.490Z,943.04
2017-11-05T12:01:18.484Z,943.04
2017-11-05T12:02:18.479Z,943.04
2017-11-05T12:03:18.467Z,943.11
2017-11-05T12:04:18.459Z,943.1
2017-11-05T12:05:18.452Z,943.07
2017-11-05T12:06:18.444Z,943.08
2017-11-05T12:07:18.450Z,943.11
2017-11-05T12:08:18.445Z,943.08
2017-11-05T12:09:18.423Z,943.04
2017-11-05T12:10:18.416Z,943.03
2017-11-05T12:11:18.410Z,943.05
2017-11-05T12:12:18.401Z,943.02
2017-11-05T12:13:18.395Z,942.97
2017-11-05T12:14:18.391Z,942.95
2017-11-05T12:15:18.383Z,942.93
2017-11-05T12:16:18.373Z,942.92
2017-11-05T12:17:18.366Z,942.93
2017-11-05T12:18:18.361Z,942.93
2017-11-05T12:19:18.354Z,942.93
2017-11-05T12:20:18.347Z,942.93
2017-11-05T12:21:18.338Z,942.92
2017-11-05T12:22:18.333Z,943.04
2017-11-05T12:23:18.341Z,943.04
2017-11-05T12:24:18.340Z,943.06
2017-11-05T12:25:18.312Z,943.12
2017-11-05T12:26:18.306Z,943.13
2017-11-05T12:27:18.298Z,943.13
2017-11-05T12:28:18.299Z,943.15
2017-11-05T12:29:18.287Z,943.11
2017-11-05T12:30:18.282Z,943.13
2017-11-05T12:31:18.290Z,943.06
2017-11-05T12:32:18.284Z,943.13